sensor_id;sensor_type;location;lat;lon;timestamp;P1;durP1;ratioP1;P2;durP2;ratioP2
9328;SDS011;4703;48.748;19.142;2022-07-06T00:00:06;2.00;;;1.90;;
9328;SDS011;4703;48.748;19.142;2022-07-06T00:02:34;2.03;;;1.87;;
9328;SDS011;4703;48.748;19.142;2022-07-06T00:05:01;2.00;;;1.90;;
9328;SDS011;4703;48.748;19.142;2022-07-06T00:07:28;1.60;;;1.50;;
9328;SDS011;4703;48.748;19.142;2022-07-06T00:09:56;1.57;;;1.47;;
9328;SDS011;4703;48.748;19.142;2022-07-06T00:12:24;1.60;;;1.50;;
9328;SDS011;4703;48.748;19.142;2022-07-06T00:14:51;1.40;;;1.30;;
9328;SDS011;4703;48.748;19.142;2022-07-06T00:17:18;1.70;;;1.60;;
9328;SDS011;4703;48.748;19.142;2022-07-06T00:19:45;1.90;;;1.80;;
9328;SDS011;4703;48.748;19.142;2022-07-06T00:22:12;2.00;;;1.87;;
9328;SDS011;4703;48.748;19.142;2022-07-06T00:24:39;2.53;;;2.03;;
9328;SDS011;4703;48.748;19.142;2022-07-06T00:27:06;3.03;;;1.70;;
9328;SDS011;4703;48.748;19.142;2022-07-06T00:29:33;2.10;;;1.67;;
9328;SDS011;4703;48.748;19.142;2022-07-06T00:32:00;1.90;;;1.77;;
9328;SDS011;4703;48.748;19.142;2022-07-06T00:34:27;3.33;;;1.73;;
9328;SDS011;4703;48.748;19.142;2022-07-06T00:36:54;1.97;;;1.87;;
9328;SDS011;4703;48.748;19.142;2022-07-06T00:39:21;1.77;;;1.67;;
9328;SDS011;4703;48.748;19.142;2022-07-06T00:41:48;2.47;;;1.53;;
9328;SDS011;4703;48.748;19.142;2022-07-06T00:44:15;1.80;;;1.70;;
9328;SDS011;4703;48.748;19.142;2022-07-06T00:46:42;2.23;;;2.13;;
9328;SDS011;4703;48.748;19.142;2022-07-06T00:49:09;1.70;;;1.60;;
9328;SDS011;4703;48.748;19.142;2022-07-06T00:51:56;1.80;;;1.70;;
9328;SDS011;4703;48.748;19.142;2022-07-06T00:54:25;1.63;;;1.53;;
9328;SDS011;4703;48.748;19.142;2022-07-06T00:56:57;1.73;;;1.63;;
9328;SDS011;4703;48.748;19.142;2022-07-06T00:59:24;1.90;;;1.60;;
9328;SDS011;4703;48.748;19.142;2022-07-06T01:01:53;1.70;;;1.60;;
9328;SDS011;4703;48.748;19.142;2022-07-06T01:04:20;1.97;;;1.87;;
9328;SDS011;4703;48.748;19.142;2022-07-06T01:06:47;1.90;;;1.70;;
9328;SDS011;4703;48.748;19.142;2022-07-06T01:09:14;1.80;;;1.70;;
9328;SDS011;4703;48.748;19.142;2022-07-06T01:11:43;1.70;;;1.60;;
9328;SDS011;4703;48.748;19.142;2022-07-06T01:14:11;2.00;;;1.70;;
9328;SDS011;4703;48.748;19.142;2022-07-06T01:16:40;1.73;;;1.63;;
9328;SDS011;4703;48.748;19.142;2022-07-06T01:19:07;2.50;;;2.30;;
9328;SDS011;4703;48.748;19.142;2022-07-06T01:21:35;2.00;;;1.90;;
9328;SDS011;4703;48.748;19.142;2022-07-06T01:24:04;2.73;;;2.53;;
9328;SDS011;4703;48.748;19.142;2022-07-06T01:26:31;1.83;;;1.73;;
9328;SDS011;4703;48.748;19.142;2022-07-06T01:28:59;2.10;;;1.87;;
9328;SDS011;4703;48.748;19.142;2022-07-06T01:31:26;1.60;;;1.50;;
9328;SDS011;4703;48.748;19.142;2022-07-06T01:33:54;2.10;;;2.00;;
9328;SDS011;4703;48.748;19.142;2022-07-06T01:36:22;2.10;;;1.90;;
9328;SDS011;4703;48.748;19.142;2022-07-06T01:38:51;2.17;;;2.07;;
9328;SDS011;4703;48.748;19.142;2022-07-06T01:41:20;2.40;;;2.23;;
9328;SDS011;4703;48.748;19.142;2022-07-06T01:43:47;3.27;;;2.00;;
9328;SDS011;4703;48.748;19.142;2022-07-06T01:46:15;2.67;;;2.17;;
9328;SDS011;4703;48.748;19.142;2022-07-06T01:48:42;2.57;;;2.37;;
9328;SDS011;4703;48.748;19.142;2022-07-06T01:51:11;2.27;;;2.17;;
9328;SDS011;4703;48.748;19.142;2022-07-06T01:53:40;3.17;;;2.90;;
9328;SDS011;4703;48.748;19.142;2022-07-06T01:56:07;3.13;;;2.93;;
9328;SDS011;4703;48.748;19.142;2022-07-06T01:58:35;3.80;;;2.90;;
9328;SDS011;4703;48.748;19.142;2022-07-06T02:01:09;2.90;;;2.70;;
9328;SDS011;4703;48.748;19.142;2022-07-06T02:03:42;3.00;;;2.80;;
9328;SDS011;4703;48.748;19.142;2022-07-06T02:06:09;3.13;;;2.83;;
9328;SDS011;4703;48.748;19.142;2022-07-06T02:08:38;2.77;;;2.63;;
9328;SDS011;4703;48.748;19.142;2022-07-06T02:11:07;3.00;;;2.80;;
9328;SDS011;4703;48.748;19.142;2022-07-06T02:13:35;3.23;;;2.90;;
9328;SDS011;4703;48.748;19.142;2022-07-06T02:16:03;3.07;;;2.87;;
9328;SDS011;4703;48.748;19.142;2022-07-06T02:18:31;2.83;;;2.53;;
9328;SDS011;4703;48.748;19.142;2022-07-06T02:20:58;3.00;;;2.80;;
9328;SDS011;4703;48.748;19.142;2022-07-06T02:23:25;2.67;;;2.50;;
9328;SDS011;4703;48.748;19.142;2022-07-06T02:25:52;2.97;;;2.77;;
9328;SDS011;4703;48.748;19.142;2022-07-06T02:28:19;3.40;;;3.20;;
9328;SDS011;4703;48.748;19.142;2022-07-06T02:30:46;3.63;;;3.40;;
9328;SDS011;4703;48.748;19.142;2022-07-06T02:33:14;3.10;;;2.83;;
9328;SDS011;4703;48.748;19.142;2022-07-06T02:35:41;3.10;;;2.90;;
9328;SDS011;4703;48.748;19.142;2022-07-06T02:38:10;2.90;;;2.70;;
9328;SDS011;4703;48.748;19.142;2022-07-06T02:40:37;3.57;;;3.30;;
9328;SDS011;4703;48.748;19.142;2022-07-06T02:43:05;3.63;;;3.33;;
9328;SDS011;4703;48.748;19.142;2022-07-06T02:45:32;3.20;;;3.00;;
9328;SDS011;4703;48.748;19.142;2022-07-06T02:48:00;3.40;;;3.20;;
9328;SDS011;4703;48.748;19.142;2022-07-06T02:50:27;4.23;;;3.07;;
9328;SDS011;4703;48.748;19.142;2022-07-06T02:52:54;3.67;;;3.40;;
9328;SDS011;4703;48.748;19.142;2022-07-06T02:55:21;8.03;;;4.03;;
9328;SDS011;4703;48.748;19.142;2022-07-06T02:57:48;3.53;;;3.33;;
9328;SDS011;4703;48.748;19.142;2022-07-06T03:00:15;3.80;;;3.50;;
9328;SDS011;4703;48.748;19.142;2022-07-06T03:02:43;4.00;;;3.70;;
9328;SDS011;4703;48.748;19.142;2022-07-06T03:05:10;3.70;;;3.40;;
9328;SDS011;4703;48.748;19.142;2022-07-06T03:07:37;3.90;;;3.50;;
9328;SDS011;4703;48.748;19.142;2022-07-06T03:10:04;3.50;;;3.30;;
9328;SDS011;4703;48.748;19.142;2022-07-06T03:12:31;3.50;;;3.30;;
9328;SDS011;4703;48.748;19.142;2022-07-06T03:14:58;3.20;;;3.00;;
9328;SDS011;4703;48.748;19.142;2022-07-06T03:17:25;3.50;;;3.30;;
9328;SDS011;4703;48.748;19.142;2022-07-06T03:19:53;3.43;;;3.13;;
9328;SDS011;4703;48.748;19.142;2022-07-06T03:22:19;4.27;;;3.97;;
9328;SDS011;4703;48.748;19.142;2022-07-06T03:24:46;4.00;;;3.70;;
9328;SDS011;4703;48.748;19.142;2022-07-06T03:27:13;3.53;;;3.23;;
9328;SDS011;4703;48.748;19.142;2022-07-06T03:29:41;4.23;;;3.93;;
9328;SDS011;4703;48.748;19.142;2022-07-06T03:32:08;3.73;;;3.43;;
9328;SDS011;4703;48.748;19.142;2022-07-06T03:34:35;4.13;;;3.10;;
9328;SDS011;4703;48.748;19.142;2022-07-06T03:37:02;3.53;;;3.33;;
9328;SDS011;4703;48.748;19.142;2022-07-06T03:39:29;3.87;;;3.57;;
9328;SDS011;4703;48.748;19.142;2022-07-06T03:41:56;3.20;;;3.00;;
9328;SDS011;4703;48.748;19.142;2022-07-06T03:44:23;3.60;;;3.30;;
9328;SDS011;4703;48.748;19.142;2022-07-06T03:46:50;3.57;;;3.37;;
9328;SDS011;4703;48.748;19.142;2022-07-06T03:49:19;3.60;;;3.40;;
9328;SDS011;4703;48.748;19.142;2022-07-06T03:51:46;3.40;;;3.10;;
9328;SDS011;4703;48.748;19.142;2022-07-06T03:54:13;3.40;;;3.20;;
9328;SDS011;4703;48.748;19.142;2022-07-06T03:56:40;3.63;;;3.33;;
9328;SDS011;4703;48.748;19.142;2022-07-06T03:59:06;3.60;;;3.40;;
9328;SDS011;4703;48.748;19.142;2022-07-06T04:01:33;3.07;;;2.87;;
9328;SDS011;4703;48.748;19.142;2022-07-06T04:04:00;3.97;;;3.73;;
9328;SDS011;4703;48.748;19.142;2022-07-06T04:06:27;3.30;;;3.00;;
9328;SDS011;4703;48.748;19.142;2022-07-06T04:08:55;3.70;;;3.50;;
9328;SDS011;4703;48.748;19.142;2022-07-06T04:11:22;3.57;;;3.37;;
9328;SDS011;4703;48.748;19.142;2022-07-06T04:13:49;3.77;;;3.57;;
9328;SDS011;4703;48.748;19.142;2022-07-06T04:16:15;2.93;;;2.73;;
9328;SDS011;4703;48.748;19.142;2022-07-06T04:18:42;4.40;;;4.10;;
9328;SDS011;4703;48.748;19.142;2022-07-06T04:21:10;5.67;;;5.27;;
9328;SDS011;4703;48.748;19.142;2022-07-06T04:23:37;4.30;;;4.00;;
9328;SDS011;4703;48.748;19.142;2022-07-06T04:26:04;11.97;;;10.97;;
9328;SDS011;4703;48.748;19.142;2022-07-06T04:28:31;9.43;;;8.63;;
9328;SDS011;4703;48.748;19.142;2022-07-06T04:30:58;4.80;;;4.10;;
9328;SDS011;4703;48.748;19.142;2022-07-06T04:33:25;3.37;;;3.17;;
9328;SDS011;4703;48.748;19.142;2022-07-06T04:35:52;9.90;;;8.87;;
9328;SDS011;4703;48.748;19.142;2022-07-06T04:38:20;11.23;;;9.50;;
9328;SDS011;4703;48.748;19.142;2022-07-06T04:40:47;4.20;;;3.90;;
9328;SDS011;4703;48.748;19.142;2022-07-06T04:43:14;4.10;;;3.80;;
9328;SDS011;4703;48.748;19.142;2022-07-06T04:45:41;3.20;;;3.00;;
9328;SDS011;4703;48.748;19.142;2022-07-06T04:48:08;2.60;;;2.50;;
9328;SDS011;4703;48.748;19.142;2022-07-06T04:50:35;3.23;;;3.03;;
9328;SDS011;4703;48.748;19.142;2022-07-06T04:53:05;3.10;;;2.80;;
9328;SDS011;4703;48.748;19.142;2022-07-06T04:55:32;3.10;;;2.90;;
9328;SDS011;4703;48.748;19.142;2022-07-06T04:58:02;3.37;;;3.10;;
9328;SDS011;4703;48.748;19.142;2022-07-06T05:00:29;3.70;;;3.40;;
9328;SDS011;4703;48.748;19.142;2022-07-06T05:02:57;2.80;;;2.63;;
9328;SDS011;4703;48.748;19.142;2022-07-06T05:05:24;3.53;;;3.33;;
9328;SDS011;4703;48.748;19.142;2022-07-06T05:07:51;3.03;;;2.90;;
9328;SDS011;4703;48.748;19.142;2022-07-06T05:10:18;3.53;;;3.23;;
9328;SDS011;4703;48.748;19.142;2022-07-06T05:12:46;10.20;;;9.30;;
9328;SDS011;4703;48.748;19.142;2022-07-06T05:15:13;26.37;;;23.50;;
9328;SDS011;4703;48.748;19.142;2022-07-06T05:17:40;11.73;;;10.63;;
9328;SDS011;4703;48.748;19.142;2022-07-06T05:20:07;5.50;;;5.00;;
9328;SDS011;4703;48.748;19.142;2022-07-06T05:22:34;3.50;;;3.30;;
9328;SDS011;4703;48.748;19.142;2022-07-06T05:25:10;3.97;;;3.63;;
9328;SDS011;4703;48.748;19.142;2022-07-06T05:27:38;4.00;;;3.70;;
9328;SDS011;4703;48.748;19.142;2022-07-06T05:30:05;4.37;;;4.00;;
9328;SDS011;4703;48.748;19.142;2022-07-06T05:32:32;7.27;;;3.77;;
9328;SDS011;4703;48.748;19.142;2022-07-06T05:34:59;3.60;;;3.40;;
9328;SDS011;4703;48.748;19.142;2022-07-06T05:37:47;4.70;;;4.30;;
9328;SDS011;4703;48.748;19.142;2022-07-06T05:40:14;4.73;;;3.73;;
9328;SDS011;4703;48.748;19.142;2022-07-06T05:42:41;3.77;;;3.53;;
9328;SDS011;4703;48.748;19.142;2022-07-06T05:45:08;4.30;;;3.90;;
9328;SDS011;4703;48.748;19.142;2022-07-06T05:47:35;4.03;;;3.73;;
9328;SDS011;4703;48.748;19.142;2022-07-06T05:50:20;4.33;;;3.97;;
9328;SDS011;4703;48.748;19.142;2022-07-06T05:52:55;4.17;;;3.87;;
9328;SDS011;4703;48.748;19.142;2022-07-06T05:55:40;9.37;;;4.30;;
9328;SDS011;4703;48.748;19.142;2022-07-06T05:58:07;4.30;;;4.00;;
9328;SDS011;4703;48.748;19.142;2022-07-06T06:00:34;4.17;;;3.87;;
9328;SDS011;4703;48.748;19.142;2022-07-06T06:03:01;5.13;;;4.83;;
9328;SDS011;4703;48.748;19.142;2022-07-06T06:05:28;5.80;;;5.20;;
9328;SDS011;4703;48.748;19.142;2022-07-06T06:07:56;4.77;;;4.37;;
9328;SDS011;4703;48.748;19.142;2022-07-06T06:10:23;4.83;;;4.43;;
9328;SDS011;4703;48.748;19.142;2022-07-06T06:12:50;4.87;;;4.47;;
9328;SDS011;4703;48.748;19.142;2022-07-06T06:15:17;4.50;;;4.10;;
9328;SDS011;4703;48.748;19.142;2022-07-06T06:17:45;5.10;;;4.70;;
9328;SDS011;4703;48.748;19.142;2022-07-06T06:20:13;4.63;;;4.23;;
9328;SDS011;4703;48.748;19.142;2022-07-06T06:22:48;4.80;;;4.40;;
9328;SDS011;4703;48.748;19.142;2022-07-06T06:25:17;4.60;;;4.30;;
9328;SDS011;4703;48.748;19.142;2022-07-06T06:27:47;30.00;;;25.10;;
9328;SDS011;4703;48.748;19.142;2022-07-06T06:30:14;9.97;;;8.97;;
9328;SDS011;4703;48.748;19.142;2022-07-06T06:32:41;7.30;;;6.20;;
9328;SDS011;4703;48.748;19.142;2022-07-06T06:35:08;4.67;;;4.37;;
9328;SDS011;4703;48.748;19.142;2022-07-06T06:37:35;5.00;;;4.60;;
9328;SDS011;4703;48.748;19.142;2022-07-06T06:40:04;10.63;;;5.37;;
9328;SDS011;4703;48.748;19.142;2022-07-06T06:42:32;12.13;;;4.80;;
9328;SDS011;4703;48.748;19.142;2022-07-06T06:45:04;8.70;;;5.30;;
9328;SDS011;4703;48.748;19.142;2022-07-06T06:47:32;5.93;;;5.40;;
9328;SDS011;4703;48.748;19.142;2022-07-06T06:49:59;5.70;;;5.30;;
9328;SDS011;4703;48.748;19.142;2022-07-06T06:52:26;6.00;;;5.57;;
9328;SDS011;4703;48.748;19.142;2022-07-06T06:55:08;8.13;;;7.27;;
9328;SDS011;4703;48.748;19.142;2022-07-06T06:57:35;8.97;;;8.07;;
9328;SDS011;4703;48.748;19.142;2022-07-06T07:00:03;5.77;;;5.27;;
9328;SDS011;4703;48.748;19.142;2022-07-06T07:02:31;5.30;;;5.00;;
9328;SDS011;4703;48.748;19.142;2022-07-06T07:04:58;5.70;;;5.30;;
9328;SDS011;4703;48.748;19.142;2022-07-06T07:07:25;16.37;;;14.43;;
9328;SDS011;4703;48.748;19.142;2022-07-06T07:09:52;33.70;;;27.20;;
9328;SDS011;4703;48.748;19.142;2022-07-06T07:12:20;11.47;;;9.03;;
9328;SDS011;4703;48.748;19.142;2022-07-06T07:14:46;6.40;;;5.80;;
9328;SDS011;4703;48.748;19.142;2022-07-06T07:17:14;6.53;;;6.03;;
9328;SDS011;4703;48.748;19.142;2022-07-06T07:19:41;6.27;;;5.40;;
9328;SDS011;4703;48.748;19.142;2022-07-06T07:22:08;6.50;;;6.00;;
9328;SDS011;4703;48.748;19.142;2022-07-06T07:24:35;6.43;;;5.87;;
9328;SDS011;4703;48.748;19.142;2022-07-06T07:27:02;6.40;;;5.90;;
9328;SDS011;4703;48.748;19.142;2022-07-06T07:29:29;6.70;;;6.20;;
9328;SDS011;4703;48.748;19.142;2022-07-06T07:31:56;17.00;;;15.40;;
9328;SDS011;4703;48.748;19.142;2022-07-06T07:34:23;12.10;;;10.90;;
9328;SDS011;4703;48.748;19.142;2022-07-06T07:36:50;13.90;;;12.60;;
9328;SDS011;4703;48.748;19.142;2022-07-06T07:39:17;11.07;;;10.07;;
9328;SDS011;4703;48.748;19.142;2022-07-06T07:41:44;7.93;;;7.23;;
9328;SDS011;4703;48.748;19.142;2022-07-06T07:44:11;7.30;;;6.73;;
9328;SDS011;4703;48.748;19.142;2022-07-06T07:46:38;6.90;;;6.40;;
9328;SDS011;4703;48.748;19.142;2022-07-06T07:49:06;6.47;;;5.97;;
9328;SDS011;4703;48.748;19.142;2022-07-06T07:51:33;6.47;;;5.97;;
9328;SDS011;4703;48.748;19.142;2022-07-06T07:54:00;7.20;;;6.40;;
9328;SDS011;4703;48.748;19.142;2022-07-06T07:56:28;6.20;;;5.70;;
9328;SDS011;4703;48.748;19.142;2022-07-06T07:58:55;6.40;;;5.90;;
9328;SDS011;4703;48.748;19.142;2022-07-06T08:01:21;6.70;;;6.20;;
9328;SDS011;4703;48.748;19.142;2022-07-06T08:03:49;7.13;;;6.53;;
9328;SDS011;4703;48.748;19.142;2022-07-06T08:06:16;6.90;;;6.40;;
9328;SDS011;4703;48.748;19.142;2022-07-06T08:08:43;6.03;;;5.63;;
9328;SDS011;4703;48.748;19.142;2022-07-06T08:11:10;6.97;;;6.40;;
9328;SDS011;4703;48.748;19.142;2022-07-06T08:13:45;17.00;;;15.40;;
9328;SDS011;4703;48.748;19.142;2022-07-06T08:16:13;10.77;;;9.33;;
9328;SDS011;4703;48.748;19.142;2022-07-06T08:18:40;15.20;;;13.67;;
9328;SDS011;4703;48.748;19.142;2022-07-06T08:21:08;7.37;;;6.77;;
9328;SDS011;4703;48.748;19.142;2022-07-06T08:23:52;6.90;;;6.40;;
9328;SDS011;4703;48.748;19.142;2022-07-06T08:26:20;7.30;;;6.77;;
9328;SDS011;4703;48.748;19.142;2022-07-06T08:28:48;6.30;;;5.70;;
9328;SDS011;4703;48.748;19.142;2022-07-06T08:31:16;6.50;;;6.03;;
9328;SDS011;4703;48.748;19.142;2022-07-06T08:34:03;7.40;;;6.33;;
9328;SDS011;4703;48.748;19.142;2022-07-06T08:36:31;7.27;;;6.77;;
9328;SDS011;4703;48.748;19.142;2022-07-06T08:38:58;6.73;;;6.23;;
9328;SDS011;4703;48.748;19.142;2022-07-06T08:41:25;6.93;;;6.30;;
9328;SDS011;4703;48.748;19.142;2022-07-06T08:43:56;6.70;;;6.23;;
9328;SDS011;4703;48.748;19.142;2022-07-06T08:46:23;6.70;;;6.07;;
9328;SDS011;4703;48.748;19.142;2022-07-06T08:48:50;6.80;;;6.30;;
9328;SDS011;4703;48.748;19.142;2022-07-06T08:51:17;6.90;;;6.30;;
9328;SDS011;4703;48.748;19.142;2022-07-06T08:53:53;6.90;;;6.30;;
9328;SDS011;4703;48.748;19.142;2022-07-06T08:56:22;10.83;;;9.80;;
9328;SDS011;4703;48.748;19.142;2022-07-06T08:58:49;10.33;;;9.43;;
9328;SDS011;4703;48.748;19.142;2022-07-06T09:01:17;12.33;;;11.23;;
9328;SDS011;4703;48.748;19.142;2022-07-06T09:03:45;7.50;;;6.90;;
9328;SDS011;4703;48.748;19.142;2022-07-06T09:06:25;6.43;;;5.93;;
9328;SDS011;4703;48.748;19.142;2022-07-06T09:08:54;6.00;;;5.40;;
9328;SDS011;4703;48.748;19.142;2022-07-06T09:11:22;5.77;;;5.37;;
9328;SDS011;4703;48.748;19.142;2022-07-06T09:13:53;5.40;;;5.00;;
9328;SDS011;4703;48.748;19.142;2022-07-06T09:16:28;6.83;;;6.23;;
9328;SDS011;4703;48.748;19.142;2022-07-06T09:19:06;6.90;;;6.30;;
9328;SDS011;4703;48.748;19.142;2022-07-06T09:21:34;6.47;;;6.03;;
9328;SDS011;4703;48.748;19.142;2022-07-06T09:24:08;6.50;;;6.10;;
9328;SDS011;4703;48.748;19.142;2022-07-06T09:26:38;6.23;;;5.83;;
9328;SDS011;4703;48.748;19.142;2022-07-06T09:29:07;6.53;;;6.10;;
9328;SDS011;4703;48.748;19.142;2022-07-06T09:31:34;6.17;;;5.77;;
9328;SDS011;4703;48.748;19.142;2022-07-06T09:34:05;6.40;;;5.90;;
9328;SDS011;4703;48.748;19.142;2022-07-06T09:36:37;6.23;;;5.73;;
9328;SDS011;4703;48.748;19.142;2022-07-06T09:41:56;5.47;;;5.07;;
9328;SDS011;4703;48.748;19.142;2022-07-06T09:44:29;6.43;;;5.93;;
9328;SDS011;4703;48.748;19.142;2022-07-06T09:47:04;5.60;;;5.20;;
9328;SDS011;4703;48.748;19.142;2022-07-06T09:49:36;4.93;;;4.63;;
9328;SDS011;4703;48.748;19.142;2022-07-06T09:52:05;6.30;;;5.80;;
9328;SDS011;4703;48.748;19.142;2022-07-06T09:54:36;6.50;;;6.03;;
9328;SDS011;4703;48.748;19.142;2022-07-06T09:57:05;30.30;;;27.10;;
9328;SDS011;4703;48.748;19.142;2022-07-06T09:59:35;20.37;;;18.27;;
9328;SDS011;4703;48.748;19.142;2022-07-06T10:02:03;9.93;;;6.30;;
9328;SDS011;4703;48.748;19.142;2022-07-06T10:04:33;6.33;;;5.87;;
9328;SDS011;4703;48.748;19.142;2022-07-06T10:07:00;5.90;;;5.47;;
9328;SDS011;4703;48.748;19.142;2022-07-06T10:09:28;6.10;;;5.60;;
9328;SDS011;4703;48.748;19.142;2022-07-06T10:11:57;10.87;;;7.30;;
9328;SDS011;4703;48.748;19.142;2022-07-06T10:14:28;9.07;;;8.30;;
9328;SDS011;4703;48.748;19.142;2022-07-06T10:16:59;5.93;;;5.53;;
9328;SDS011;4703;48.748;19.142;2022-07-06T10:19:29;5.50;;;5.10;;
9328;SDS011;4703;48.748;19.142;2022-07-06T10:21:58;6.10;;;5.70;;
9328;SDS011;4703;48.748;19.142;2022-07-06T10:24:28;6.17;;;5.77;;
9328;SDS011;4703;48.748;19.142;2022-07-06T10:26:56;6.60;;;6.07;;
9328;SDS011;4703;48.748;19.142;2022-07-06T10:29:24;6.63;;;6.13;;
9328;SDS011;4703;48.748;19.142;2022-07-06T10:31:51;6.93;;;6.43;;
9328;SDS011;4703;48.748;19.142;2022-07-06T10:34:20;6.63;;;6.10;;
9328;SDS011;4703;48.748;19.142;2022-07-06T10:36:51;6.40;;;6.00;;
9328;SDS011;4703;48.748;19.142;2022-07-06T10:50:46;7.23;;;6.53;;
9328;SDS011;4703;48.748;19.142;2022-07-06T10:53:16;7.00;;;6.20;;
9328;SDS011;4703;48.748;19.142;2022-07-06T10:55:54;7.30;;;6.80;;
9328;SDS011;4703;48.748;19.142;2022-07-06T11:01:17;7.90;;;7.20;;
9328;SDS011;4703;48.748;19.142;2022-07-06T11:03:48;8.27;;;7.67;;
9328;SDS011;4703;48.748;19.142;2022-07-06T11:06:37;8.63;;;7.93;;
9328;SDS011;4703;48.748;19.142;2022-07-06T11:09:09;7.83;;;7.23;;
9328;SDS011;4703;48.748;19.142;2022-07-06T11:19:16;10.23;;;9.43;;
9328;SDS011;4703;48.748;19.142;2022-07-06T11:21:53;10.97;;;9.87;;
9328;SDS011;4703;48.748;19.142;2022-07-06T11:24:35;11.13;;;10.20;;
9328;SDS011;4703;48.748;19.142;2022-07-06T11:27:05;10.20;;;9.40;;
9328;SDS011;4703;48.748;19.142;2022-07-06T11:29:33;10.90;;;10.10;;
9328;SDS011;4703;48.748;19.142;2022-07-06T11:32:03;10.97;;;9.80;;
9328;SDS011;4703;48.748;19.142;2022-07-06T11:34:33;11.83;;;10.87;;
9328;SDS011;4703;48.748;19.142;2022-07-06T11:37:06;10.57;;;9.70;;
9328;SDS011;4703;48.748;19.142;2022-07-06T11:39:39;10.80;;;9.83;;
9328;SDS011;4703;48.748;19.142;2022-07-06T11:42:09;11.43;;;10.43;;
9328;SDS011;4703;48.748;19.142;2022-07-06T11:44:38;11.77;;;10.77;;
9328;SDS011;4703;48.748;19.142;2022-07-06T11:47:07;11.40;;;10.50;;
9328;SDS011;4703;48.748;19.142;2022-07-06T11:49:36;11.80;;;10.80;;
9328;SDS011;4703;48.748;19.142;2022-07-06T11:52:05;11.30;;;10.40;;
9328;SDS011;4703;48.748;19.142;2022-07-06T11:54:34;11.97;;;11.07;;
9328;SDS011;4703;48.748;19.142;2022-07-06T11:57:02;11.10;;;10.20;;
9328;SDS011;4703;48.748;19.142;2022-07-06T11:59:33;10.70;;;9.70;;
9328;SDS011;4703;48.748;19.142;2022-07-06T12:02:03;11.27;;;10.17;;
9328;SDS011;4703;48.748;19.142;2022-07-06T12:04:44;9.53;;;8.67;;
9328;SDS011;4703;48.748;19.142;2022-07-06T12:07:14;11.07;;;10.27;;
9328;SDS011;4703;48.748;19.142;2022-07-06T12:09:43;10.83;;;10.03;;
9328;SDS011;4703;48.748;19.142;2022-07-06T12:12:13;9.40;;;8.60;;
9328;SDS011;4703;48.748;19.142;2022-07-06T12:14:42;8.93;;;8.20;;
9328;SDS011;4703;48.748;19.142;2022-07-06T12:17:10;7.93;;;7.33;;
9328;SDS011;4703;48.748;19.142;2022-07-06T12:19:42;8.60;;;8.00;;
9328;SDS011;4703;48.748;19.142;2022-07-06T12:22:10;8.33;;;7.80;;
9328;SDS011;4703;48.748;19.142;2022-07-06T12:24:37;8.77;;;8.07;;
9328;SDS011;4703;48.748;19.142;2022-07-06T12:27:16;8.40;;;7.60;;
9328;SDS011;4703;48.748;19.142;2022-07-06T12:29:45;9.03;;;8.33;;
9328;SDS011;4703;48.748;19.142;2022-07-06T12:32:15;8.00;;;7.40;;
9328;SDS011;4703;48.748;19.142;2022-07-06T12:34:44;7.63;;;7.03;;
9328;SDS011;4703;48.748;19.142;2022-07-06T12:37:11;7.33;;;6.90;;
9328;SDS011;4703;48.748;19.142;2022-07-06T12:39:43;6.40;;;6.00;;
9328;SDS011;4703;48.748;19.142;2022-07-06T12:42:16;6.90;;;6.50;;
9328;SDS011;4703;48.748;19.142;2022-07-06T12:50:07;6.10;;;5.70;;
9328;SDS011;4703;48.748;19.142;2022-07-06T12:52:37;13.87;;;12.43;;
9328;SDS011;4703;48.748;19.142;2022-07-06T12:55:05;9.40;;;8.60;;
9328;SDS011;4703;48.748;19.142;2022-07-06T12:57:46;5.60;;;5.20;;
9328;SDS011;4703;48.748;19.142;2022-07-06T13:00:15;4.80;;;4.50;;
9328;SDS011;4703;48.748;19.142;2022-07-06T13:02:44;3.60;;;3.40;;
9328;SDS011;4703;48.748;19.142;2022-07-06T13:05:33;4.17;;;3.87;;
9328;SDS011;4703;48.748;19.142;2022-07-06T13:08:02;3.73;;;3.33;;
9328;SDS011;4703;48.748;19.142;2022-07-06T13:10:29;4.00;;;3.60;;
9328;SDS011;4703;48.748;19.142;2022-07-06T13:13:01;3.77;;;3.57;;
9328;SDS011;4703;48.748;19.142;2022-07-06T13:15:28;4.07;;;3.77;;
9328;SDS011;4703;48.748;19.142;2022-07-06T13:17:55;4.17;;;3.87;;
9328;SDS011;4703;48.748;19.142;2022-07-06T13:20:22;3.70;;;3.50;;
9328;SDS011;4703;48.748;19.142;2022-07-06T13:22:49;3.87;;;3.67;;
9328;SDS011;4703;48.748;19.142;2022-07-06T13:25:17;4.00;;;3.80;;
9328;SDS011;4703;48.748;19.142;2022-07-06T13:27:44;4.20;;;3.90;;
9328;SDS011;4703;48.748;19.142;2022-07-06T13:30:11;3.50;;;3.23;;
9328;SDS011;4703;48.748;19.142;2022-07-06T13:32:38;3.77;;;3.57;;
9328;SDS011;4703;48.748;19.142;2022-07-06T13:35:06;5.00;;;4.53;;
9328;SDS011;4703;48.748;19.142;2022-07-06T13:37:33;4.37;;;4.07;;
9328;SDS011;4703;48.748;19.142;2022-07-06T13:40:00;4.23;;;3.93;;
9328;SDS011;4703;48.748;19.142;2022-07-06T13:42:28;4.10;;;3.80;;
9328;SDS011;4703;48.748;19.142;2022-07-06T13:44:55;4.40;;;4.20;;
9328;SDS011;4703;48.748;19.142;2022-07-06T13:47:22;3.83;;;3.63;;
9328;SDS011;4703;48.748;19.142;2022-07-06T13:49:49;3.30;;;3.10;;
9328;SDS011;4703;48.748;19.142;2022-07-06T13:52:16;3.53;;;3.33;;
9328;SDS011;4703;48.748;19.142;2022-07-06T13:54:43;3.30;;;3.10;;
9328;SDS011;4703;48.748;19.142;2022-07-06T13:57:10;3.13;;;2.93;;
9328;SDS011;4703;48.748;19.142;2022-07-06T13:59:37;3.67;;;2.80;;
9328;SDS011;4703;48.748;19.142;2022-07-06T14:02:04;2.97;;;2.67;;
9328;SDS011;4703;48.748;19.142;2022-07-06T14:04:33;2.20;;;2.10;;
9328;SDS011;4703;48.748;19.142;2022-07-06T14:07:01;2.37;;;2.27;;
9328;SDS011;4703;48.748;19.142;2022-07-06T14:09:28;2.13;;;2.03;;
9328;SDS011;4703;48.748;19.142;2022-07-06T14:11:55;2.37;;;2.23;;
9328;SDS011;4703;48.748;19.142;2022-07-06T14:14:22;2.20;;;2.10;;
9328;SDS011;4703;48.748;19.142;2022-07-06T14:16:49;2.50;;;2.30;;
9328;SDS011;4703;48.748;19.142;2022-07-06T14:19:17;2.53;;;2.43;;
9328;SDS011;4703;48.748;19.142;2022-07-06T14:21:47;3.17;;;2.87;;
9328;SDS011;4703;48.748;19.142;2022-07-06T14:24:15;3.30;;;3.10;;
9328;SDS011;4703;48.748;19.142;2022-07-06T14:26:42;3.27;;;3.17;;
9328;SDS011;4703;48.748;19.142;2022-07-06T14:29:09;3.10;;;2.90;;
9328;SDS011;4703;48.748;19.142;2022-07-06T14:31:36;3.97;;;3.77;;
9328;SDS011;4703;48.748;19.142;2022-07-06T14:34:03;4.93;;;4.50;;
9328;SDS011;4703;48.748;19.142;2022-07-06T14:36:31;8.00;;;7.30;;
9328;SDS011;4703;48.748;19.142;2022-07-06T14:38:59;3.60;;;3.40;;
9328;SDS011;4703;48.748;19.142;2022-07-06T14:41:26;3.50;;;3.30;;
9328;SDS011;4703;48.748;19.142;2022-07-06T14:43:53;2.97;;;2.77;;
9328;SDS011;4703;48.748;19.142;2022-07-06T14:46:20;2.73;;;2.53;;
9328;SDS011;4703;48.748;19.142;2022-07-06T14:48:47;3.07;;;2.97;;
9328;SDS011;4703;48.748;19.142;2022-07-06T14:51:14;3.03;;;2.83;;
9328;SDS011;4703;48.748;19.142;2022-07-06T14:53:41;3.20;;;3.03;;
9328;SDS011;4703;48.748;19.142;2022-07-06T14:56:09;2.57;;;2.47;;
9328;SDS011;4703;48.748;19.142;2022-07-06T14:58:38;3.30;;;3.10;;
9328;SDS011;4703;48.748;19.142;2022-07-06T15:01:18;3.57;;;3.27;;
9328;SDS011;4703;48.748;19.142;2022-07-06T15:03:48;3.33;;;3.13;;
9328;SDS011;4703;48.748;19.142;2022-07-06T15:06:15;3.93;;;3.63;;
9328;SDS011;4703;48.748;19.142;2022-07-06T15:09:02;4.17;;;3.97;;
9328;SDS011;4703;48.748;19.142;2022-07-06T15:11:33;3.43;;;3.00;;
9328;SDS011;4703;48.748;19.142;2022-07-06T15:14:00;3.90;;;3.70;;
9328;SDS011;4703;48.748;19.142;2022-07-06T15:16:27;3.63;;;3.33;;
9328;SDS011;4703;48.748;19.142;2022-07-06T15:18:55;3.37;;;3.17;;
9328;SDS011;4703;48.748;19.142;2022-07-06T15:21:22;3.60;;;3.30;;
9328;SDS011;4703;48.748;19.142;2022-07-06T15:23:49;3.13;;;3.03;;
9328;SDS011;4703;48.748;19.142;2022-07-06T15:26:17;3.67;;;3.37;;
9328;SDS011;4703;48.748;19.142;2022-07-06T15:28:44;3.10;;;2.90;;
9328;SDS011;4703;48.748;19.142;2022-07-06T15:31:11;3.50;;;3.30;;
9328;SDS011;4703;48.748;19.142;2022-07-06T15:33:44;3.20;;;3.00;;
9328;SDS011;4703;48.748;19.142;2022-07-06T15:36:11;3.47;;;3.27;;